createdAt,value
2022-08-08T00:00:50.839Z,0.45
2022-08-08T00:03:47.567Z,0.30
2022-08-08T00:06:52.425Z,0.30
2022-08-08T00:10:01.719Z,0.52
2022-08-08T00:13:10.481Z,0.40
2022-08-08T00:16:01.878Z,0.20
2022-08-08T00:18:58.210Z,0.32
2022-08-08T00:21:48.821Z,0.13
2022-08-08T00:24:54.237Z,0.30
2022-08-08T00:27:35.837Z,0.20
2022-08-08T00:30:17.565Z,0.25
2022-08-08T00:33:24.055Z,0.20
2022-08-08T00:36:35.177Z,0.50
2022-08-08T00:41:07.300Z,0.15
2022-08-08T00:42:33.199Z,0.35
2022-08-08T00:45:39.941Z,0.32
2022-08-08T00:49:21.846Z,0.30
2022-08-08T00:52:54.149Z,0.25
2022-08-08T00:56:30.090Z,0.28
2022-08-08T00:59:44.082Z,0.30
2022-08-08T01:03:57.974Z,0.20
2022-08-08T01:06:37.062Z,0.43
2022-08-08T01:10:16.066Z,0.30
2022-08-08T01:13:14.944Z,0.30
2022-08-08T01:16:04.625Z,0.30
2022-08-08T01:19:13.622Z,0.22
2022-08-08T01:22:34.946Z,0.28
2022-08-08T01:26:05.886Z,0.30
2022-08-08T01:29:59.828Z,0.20
2022-08-08T01:33:16.320Z,0.30
2022-08-08T01:36:48.546Z,0.40
2022-08-08T01:40:14.667Z,0.38
2022-08-08T01:43:39.796Z,0.20
2022-08-08T01:47:06.002Z,0.40
2022-08-08T01:50:48.796Z,0.28
2022-08-08T01:55:15.424Z,0.32
2022-08-08T01:58:11.844Z,0.20
2022-08-08T02:02:00.242Z,0.15
2022-08-08T02:04:59.463Z,0.45
2022-08-08T02:08:13.192Z,0.30
2022-08-08T02:11:23.414Z,0.22
2022-08-08T02:15:01.015Z,0.20
2022-08-08T02:18:03.220Z,0.20
2022-08-08T02:21:28.547Z,0.30
2022-08-08T02:24:19.930Z,0.30
2022-08-08T02:27:42.139Z,0.30
2022-08-08T02:30:49.938Z,0.50
2022-08-08T02:34:08.721Z,0.32
2022-08-08T02:37:51.805Z,0.30
2022-08-08T02:40:55.722Z,0.10
2022-08-08T02:44:38.391Z,0.20
2022-08-08T02:48:10.516Z,0.30
2022-08-08T02:51:11.861Z,0.40
2022-08-08T02:54:25.966Z,0.30
2022-08-08T02:57:45.098Z,0.22
2022-08-08T03:01:01.320Z,0.95
2022-08-08T03:05:03.849Z,0.30
2022-08-08T03:08:14.911Z,0.32
2022-08-08T03:12:01.181Z,0.30
2022-08-08T03:15:56.777Z,0.45
2022-08-08T03:18:31.965Z,0.50
2022-08-08T03:21:14.635Z,0.40
2022-08-08T03:23:56.220Z,0.38
2022-08-08T03:26:48.614Z,0.43
2022-08-08T03:29:56.133Z,0.30
2022-08-08T03:32:59.957Z,0.40
2022-08-08T03:35:42.955Z,0.30
2022-08-08T03:38:54.462Z,0.32
2022-08-08T03:42:12.359Z,0.40
2022-08-08T03:44:35.196Z,0.30
2022-08-08T03:50:02.167Z,0.30
2022-08-08T03:52:46.508Z,0.32
2022-08-08T03:55:57.914Z,0.40
2022-08-08T03:58:35.588Z,0.43
2022-08-08T04:01:23.527Z,0.30
2022-08-08T04:04:03.247Z,0.55
2022-08-08T04:06:41.595Z,0.30
2022-08-08T04:09:20.102Z,0.30
2022-08-08T04:12:01.455Z,0.40
2022-08-08T04:14:45.238Z,0.40
2022-08-08T04:17:58.605Z,0.22
2022-08-08T04:20:21.911Z,0.50
2022-08-08T04:23:07.991Z,0.57
2022-08-08T04:25:46.181Z,0.50
2022-08-08T04:28:40.293Z,0.40
2022-08-08T04:31:56.916Z,0.57
2022-08-08T04:34:18.485Z,0.50
2022-08-08T04:36:56.697Z,0.28
2022-08-08T04:40:04.757Z,0.50
2022-08-08T04:42:37.601Z,0.40
2022-08-08T04:45:34.711Z,0.45
2022-08-08T04:48:15.111Z,0.38
2022-08-08T04:54:26.838Z,0.30
2022-08-08T04:56:30.022Z,0.38
2022-08-08T04:59:08.353Z,0.35
2022-08-08T05:01:48.169Z,0.75
2022-08-08T05:04:26.978Z,0.38
2022-08-08T05:07:06.419Z,0.55
2022-08-08T05:09:44.780Z,0.45
2022-08-08T05:12:29.101Z,3.45
2022-08-08T05:15:08.435Z,7.85
2022-08-08T05:17:53.675Z,2.28
2022-08-08T05:20:32.930Z,1.55
2022-08-08T05:23:11.831Z,0.55
2022-08-08T05:25:59.851Z,0.80
2022-08-08T05:28:56.288Z,0.50
2022-08-08T05:32:04.186Z,0.52
2022-08-08T05:34:46.462Z,0.60
2022-08-08T05:37:51.824Z,0.55
2022-08-08T05:40:30.123Z,0.65
2022-08-08T05:43:17.077Z,0.50
2022-08-08T05:46:11.692Z,0.50
2022-08-08T05:48:52.662Z,0.65
2022-08-08T05:51:48.056Z,0.60
2022-08-08T05:54:50.526Z,0.50
2022-08-08T05:57:59.634Z,0.32
2022-08-08T06:00:34.297Z,0.50
2022-08-08T06:03:24.902Z,0.50
2022-08-08T06:06:09.778Z,0.40
2022-08-08T06:08:55.142Z,0.60
2022-08-08T06:14:26.848Z,0.57
2022-08-08T06:17:07.083Z,0.80
2022-08-08T06:19:57.206Z,0.70
2022-08-08T06:22:35.697Z,0.60
2022-08-08T06:25:13.827Z,0.50
2022-08-08T06:28:03.369Z,0.40
2022-08-08T06:30:45.500Z,0.55
2022-08-08T06:34:25.971Z,0.70
2022-08-08T06:36:53.669Z,0.43
2022-08-08T06:39:34.067Z,0.50
2022-08-08T06:42:14.580Z,0.57
2022-08-08T06:44:53.577Z,0.50
2022-08-08T06:47:33.713Z,0.88
2022-08-08T06:50:33.787Z,0.75
2022-08-08T06:53:20.609Z,0.60
2022-08-08T06:56:01.903Z,0.80
2022-08-08T06:58:41.042Z,0.60
2022-08-08T07:02:16.737Z,0.73
2022-08-08T07:04:47.893Z,0.45
2022-08-08T07:10:38.159Z,0.60
2022-08-08T07:13:25.090Z,0.70
2022-08-08T07:16:29.079Z,0.60
2022-08-08T07:19:20.812Z,0.60
2022-08-08T07:22:11.989Z,0.70
2022-08-08T07:25:06.851Z,0.88
2022-08-08T07:28:02.579Z,1.00
2022-08-08T07:30:46.858Z,0.60
2022-08-08T07:33:26.096Z,0.70
2022-08-08T07:36:08.401Z,0.68
2022-08-08T07:38:53.359Z,1.13
2022-08-08T07:41:58.749Z,0.65
2022-08-08T07:44:40.444Z,0.80
2022-08-08T07:47:29.118Z,0.50
2022-08-08T07:50:23.382Z,0.68
2022-08-08T07:54:00.982Z,0.60
2022-08-08T07:56:36.451Z,0.88
2022-08-08T07:59:19.464Z,0.70
2022-08-08T08:02:35.626Z,0.80
2022-08-08T08:05:04.126Z,1.10
2022-08-08T08:08:06.623Z,0.60
2022-08-08T08:10:52.124Z,0.63
2022-08-08T08:13:42.255Z,0.88
2022-08-08T08:16:42.267Z,0.90
2022-08-08T08:19:45.898Z,0.82
2022-08-08T08:22:31.524Z,0.63
2022-08-08T08:25:12.042Z,0.60
2022-08-08T08:27:55.152Z,1.00
2022-08-08T08:30:33.735Z,0.50
2022-08-08T08:33:13.512Z,0.82
2022-08-08T08:36:18.727Z,0.88
2022-08-08T08:38:50.932Z,0.77
2022-08-08T08:41:31.127Z,1.50
2022-08-08T08:44:14.131Z,0.80
2022-08-08T08:46:58.798Z,0.88
2022-08-08T08:49:37.215Z,0.70
2022-08-08T08:52:22.445Z,0.90
2022-08-08T08:55:10.081Z,0.88
2022-08-08T08:57:55.919Z,0.93
2022-08-08T09:01:05.307Z,0.80
2022-08-08T09:03:47.083Z,0.70
2022-08-08T09:06:36.364Z,0.73
2022-08-08T09:09:39.377Z,1.17
2022-08-08T09:12:28.093Z,0.68
2022-08-08T09:15:07.430Z,0.90
2022-08-08T09:17:52.420Z,0.50
2022-08-08T09:22:01.640Z,0.63
2022-08-08T09:23:38.344Z,0.60
2022-08-08T09:26:56.767Z,0.55
2022-08-08T09:30:14.551Z,0.32
2022-08-08T09:33:55.452Z,0.75
2022-08-08T09:38:55.549Z,0.30
2022-08-08T09:42:14.380Z,0.60
2022-08-08T09:45:54.543Z,0.45
2022-08-08T09:48:39.173Z,1.08
2022-08-08T09:52:01.923Z,0.68
2022-08-08T09:54:43.966Z,2.17
2022-08-08T09:57:55.895Z,1.10
2022-08-08T10:00:54.476Z,1.05
2022-08-08T10:03:40.133Z,0.93
2022-08-08T10:06:21.462Z,0.73
2022-08-08T10:09:08.548Z,0.80
2022-08-08T10:12:26.623Z,1.40
2022-08-08T10:14:48.794Z,0.60
2022-08-08T10:17:38.798Z,0.52
2022-08-08T10:20:40.204Z,0.90
2022-08-08T10:23:41.878Z,0.80
2022-08-08T10:26:57.115Z,0.90
2022-08-08T10:30:05.370Z,1.35
2022-08-08T10:32:55.174Z,0.70
2022-08-08T10:36:08.895Z,0.60
2022-08-08T10:38:35.031Z,2.17
2022-08-08T10:41:20.234Z,0.93
2022-08-08T10:44:00.167Z,0.80
2022-08-08T10:46:39.017Z,2.10
2022-08-08T10:50:00.029Z,1.70
2022-08-08T10:52:43.358Z,0.88
2022-08-08T10:55:39.635Z,1.15
2022-08-08T10:58:29.241Z,0.52
2022-08-08T11:01:12.790Z,0.95
2022-08-08T11:04:02.132Z,0.90
2022-08-08T11:06:49.353Z,0.63
2022-08-08T11:09:31.938Z,0.90
2022-08-08T11:12:13.326Z,0.93
2022-08-08T11:15:00.767Z,0.70
2022-08-08T11:17:58.227Z,0.73
2022-08-08T11:20:42.121Z,1.00
2022-08-08T11:23:35.150Z,1.40
2022-08-08T11:26:27.387Z,1.30
2022-08-08T11:29:08.506Z,1.50
2022-08-08T11:31:53.349Z,0.70
2022-08-08T11:34:52.612Z,1.40
2022-08-08T11:38:35.887Z,1.00
2022-08-08T11:40:36.273Z,0.60
2022-08-08T11:43:16.456Z,0.70
2022-08-08T11:46:17.631Z,3.22
2022-08-08T11:48:56.319Z,1.63
2022-08-08T11:51:39.672Z,1.10
2022-08-08T11:54:44.976Z,0.98
2022-08-08T11:57:28.582Z,1.80
2022-08-08T12:00:19.220Z,2.00
2022-08-08T12:02:58.675Z,1.20
2022-08-08T12:05:38.875Z,4.50
2022-08-08T12:08:30.640Z,1.30
2022-08-08T12:11:26.842Z,0.93
2022-08-08T12:14:07.866Z,1.20
2022-08-08T12:16:52.575Z,2.00
2022-08-08T12:19:37.445Z,1.17
2022-08-08T12:22:35.724Z,2.83
2022-08-08T12:25:31.131Z,0.90
2022-08-08T12:28:16.496Z,0.70
2022-08-08T12:31:04.804Z,0.98
2022-08-08T12:34:01.939Z,0.73
2022-08-08T12:36:46.230Z,1.08
2022-08-08T12:39:37.096Z,1.02
2022-08-08T12:42:32.812Z,1.38
2022-08-08T12:45:54.111Z,2.03
2022-08-08T12:48:37.403Z,1.20
2022-08-08T12:51:21.822Z,0.73
2022-08-08T12:54:04.706Z,1.75
2022-08-08T12:57:12.024Z,2.85
2022-08-08T13:00:05.168Z,1.40
2022-08-08T13:03:00.721Z,0.73
2022-08-08T13:06:02.825Z,0.85
2022-08-08T13:08:53.250Z,1.45
2022-08-08T13:12:18.063Z,0.90
2022-08-08T13:14:53.335Z,0.88
2022-08-08T13:17:54.178Z,0.93
2022-08-08T13:20:31.922Z,4.53
2022-08-08T13:23:36.774Z,3.28
2022-08-08T13:26:18.495Z,1.10
2022-08-08T13:28:56.747Z,0.80
2022-08-08T13:31:35.454Z,2.63
2022-08-08T13:34:33.215Z,1.63
2022-08-08T13:37:19.721Z,0.98
2022-08-08T13:40:07.947Z,0.90
2022-08-08T13:42:46.440Z,2.72
2022-08-08T13:45:26.461Z,6.03
2022-08-08T13:48:14.308Z,2.15
2022-08-08T13:50:57.574Z,2.33
2022-08-08T13:54:00.599Z,2.90
2022-08-08T13:56:44.737Z,1.25
2022-08-08T13:59:49.180Z,0.65
2022-08-08T14:02:32.967Z,1.50
2022-08-08T14:05:21.565Z,2.83
2022-08-08T14:08:11.670Z,1.40
2022-08-08T14:10:56.044Z,1.92
2022-08-08T14:13:35.147Z,0.90
2022-08-08T14:16:16.392Z,0.90
2022-08-08T14:18:58.104Z,0.90
2022-08-08T14:21:48.836Z,0.80
2022-08-08T14:24:34.763Z,0.60
2022-08-08T14:27:34.084Z,0.90
2022-08-08T14:30:18.566Z,1.05
2022-08-08T14:32:58.818Z,4.88
2022-08-08T14:35:35.849Z,3.97
2022-08-08T14:38:34.430Z,2.47
2022-08-08T14:41:54.024Z,3.10
2022-08-08T14:44:33.642Z,1.45
2022-08-08T14:47:21.633Z,0.80
2022-08-08T14:50:15.240Z,0.80
2022-08-08T14:53:05.872Z,1.38
2022-08-08T14:55:45.066Z,1.52
2022-08-08T14:58:24.142Z,0.68
2022-08-08T15:01:07.425Z,2.60
2022-08-08T15:04:08.739Z,1.10
2022-08-08T15:06:47.264Z,1.00
2022-08-08T15:09:29.489Z,2.38
2022-08-08T15:12:09.246Z,1.10
2022-08-08T15:14:48.712Z,2.08
2022-08-08T15:17:27.265Z,2.72
2022-08-08T15:20:12.064Z,1.50
2022-08-08T15:22:52.573Z,1.10
2022-08-08T15:25:33.713Z,1.05
2022-08-08T15:28:33.324Z,0.70
2022-08-08T15:31:11.354Z,0.63
2022-08-08T15:34:04.679Z,0.80
2022-08-08T15:36:42.962Z,1.20
2022-08-08T15:39:21.709Z,0.70
2022-08-08T15:42:01.120Z,0.75
2022-08-08T15:44:40.284Z,0.80
2022-08-08T15:47:22.824Z,0.95
2022-08-08T15:50:01.707Z,0.70
2022-08-08T15:52:40.608Z,0.85
2022-08-08T15:55:21.313Z,1.02
2022-08-08T15:57:59.429Z,0.70
2022-08-08T16:00:38.524Z,1.48
2022-08-08T16:03:25.821Z,0.70
2022-08-08T16:06:14.382Z,0.75
2022-08-08T16:13:02.460Z,1.65
2022-08-08T16:13:05.660Z,0.70
2022-08-08T16:14:53.482Z,1.90
2022-08-08T16:17:58.213Z,1.70
2022-08-08T16:20:31.473Z,1.17
2022-08-08T16:23:11.452Z,1.25
2022-08-08T16:28:37.500Z,1.30
2022-08-08T16:31:16.921Z,0.60
2022-08-08T16:33:59.115Z,0.98
2022-08-08T16:36:42.144Z,2.03
2022-08-08T16:39:59.927Z,1.05
2022-08-08T16:42:19.870Z,1.30
2022-08-08T16:44:59.656Z,1.10
2022-08-08T16:47:41.984Z,1.40
2022-08-08T16:50:20.806Z,1.40
2022-08-08T16:55:01.611Z,2.00
2022-08-08T16:55:57.957Z,1.45
2022-08-08T16:58:38.835Z,1.00
2022-08-08T17:01:20.492Z,1.17
2022-08-08T17:04:03.733Z,0.88
2022-08-08T17:12:02.709Z,0.98
2022-08-08T17:14:41.153Z,1.48
2022-08-08T17:17:41.390Z,1.25
2022-08-08T17:20:18.244Z,0.80
2022-08-08T17:23:16.843Z,1.00
2022-08-08T17:25:57.226Z,0.80
2022-08-08T17:28:43.263Z,0.95
2022-08-08T17:31:43.428Z,1.23
2022-08-08T17:34:36.745Z,7.57
2022-08-08T17:37:22.418Z,6.22
2022-08-08T17:40:13.190Z,3.13
2022-08-08T17:42:53.425Z,6.53
2022-08-08T17:45:32.819Z,5.85
2022-08-08T17:48:21.045Z,9.98
2022-08-08T17:51:07.684Z,6.07
2022-08-08T17:53:45.903Z,6.05
2022-08-08T17:56:36.036Z,2.55
2022-08-08T17:59:15.462Z,1.40
2022-08-08T18:01:59.873Z,2.05
2022-08-08T18:04:50.319Z,2.50
2022-08-08T18:08:04.011Z,2.92
2022-08-08T18:10:31.383Z,5.20
2022-08-08T18:13:09.881Z,3.50
2022-08-08T18:15:47.990Z,2.55
2022-08-08T18:21:58.848Z,1.20
2022-08-08T18:24:30.234Z,3.03
2022-08-08T18:27:17.295Z,2.47
2022-08-08T18:29:55.980Z,1.95
2022-08-08T18:32:35.418Z,1.60
2022-08-08T18:35:20.417Z,1.13
2022-08-08T18:38:03.643Z,1.00
2022-08-08T18:40:55.081Z,0.85
2022-08-08T18:43:37.890Z,1.13
2022-08-08T18:46:57.111Z,1.10
2022-08-08T18:49:20.256Z,1.17
2022-08-08T18:52:02.717Z,0.52
2022-08-08T18:54:41.252Z,0.63
2022-08-08T18:57:20.647Z,0.70
2022-08-08T19:00:01.330Z,0.80
2022-08-08T19:02:54.651Z,0.73
2022-08-08T19:05:45.340Z,0.90
2022-08-08T19:08:29.265Z,1.17
2022-08-08T19:11:09.387Z,0.60
2022-08-08T19:13:56.929Z,0.73
2022-08-08T19:16:35.503Z,0.60
2022-08-08T19:19:13.976Z,0.80
2022-08-08T19:21:52.507Z,0.68
2022-08-08T19:24:42.423Z,1.00
2022-08-08T19:27:55.854Z,0.60
2022-08-08T19:30:29.374Z,0.70
2022-08-08T19:33:08.666Z,0.70
2022-08-08T19:36:08.809Z,0.95
2022-08-08T19:38:46.131Z,0.60
2022-08-08T19:41:30.965Z,0.80
2022-08-08T19:44:12.920Z,0.90
2022-08-08T19:47:06.530Z,0.90
2022-08-08T19:49:59.973Z,0.93
2022-08-08T19:52:39.439Z,0.77
2022-08-08T19:55:34.291Z,0.63
2022-08-08T19:58:12.620Z,0.63
2022-08-08T20:00:56.081Z,0.63
2022-08-08T20:04:02.062Z,0.95
2022-08-08T20:06:32.979Z,1.20
2022-08-08T20:09:13.007Z,0.80
2022-08-08T20:11:55.305Z,0.75
2022-08-08T20:14:41.882Z,0.82
2022-08-08T20:17:29.307Z,0.75
2022-08-08T20:20:12.787Z,0.82
2022-08-08T20:22:57.675Z,0.80
2022-08-08T20:25:36.248Z,0.80
2022-08-08T20:28:18.798Z,0.80
2022-08-08T20:31:00.829Z,0.80
2022-08-08T20:34:29.972Z,0.80
2022-08-08T20:36:38.633Z,0.70
2022-08-08T20:39:16.866Z,0.70
2022-08-08T20:41:57.509Z,0.60
2022-08-08T20:44:34.438Z,0.90
2022-08-08T20:47:22.905Z,0.90
2022-08-08T20:50:10.884Z,0.85
2022-08-08T20:52:49.445Z,0.70
2022-08-08T20:55:29.287Z,0.80
2022-08-08T20:58:23.022Z,0.70
2022-08-08T21:01:01.491Z,1.00
2022-08-08T21:03:55.839Z,1.10
2022-08-08T21:06:52.127Z,1.00
2022-08-08T21:10:01.983Z,0.80
2022-08-08T21:12:33.384Z,0.90
2022-08-08T21:15:16.613Z,0.73
2022-08-08T21:18:11.581Z,0.73
2022-08-08T21:20:51.060Z,1.05
2022-08-08T21:24:02.648Z,0.68
2022-08-08T21:26:28.496Z,0.82
2022-08-08T21:29:07.313Z,1.17
2022-08-08T21:31:58.336Z,0.95
2022-08-08T21:34:37.668Z,1.00
2022-08-08T21:37:19.190Z,0.98
2022-08-08T21:39:57.425Z,0.80
2022-08-08T21:42:38.339Z,0.85
2022-08-08T21:45:44.833Z,1.10
2022-08-08T21:48:19.629Z,0.88
2022-08-08T21:51:04.609Z,0.80
2022-08-08T21:54:31.175Z,0.95
2022-08-08T21:56:46.807Z,0.70
2022-08-08T21:59:44.223Z,1.00
2022-08-08T22:02:27.407Z,0.93
2022-08-08T22:05:06.368Z,1.00
2022-08-08T22:07:48.275Z,1.00
2022-08-08T22:10:32.719Z,0.90
2022-08-08T22:13:18.548Z,0.98
2022-08-08T22:16:00.762Z,1.33
2022-08-08T22:18:39.385Z,0.85
2022-08-08T22:21:18.276Z,1.00
2022-08-08T22:23:59.968Z,0.90
2022-08-08T22:27:01.597Z,0.90
2022-08-08T22:29:59.170Z,0.80
2022-08-08T22:32:34.854Z,0.90
2022-08-08T22:35:13.053Z,1.23
2022-08-08T22:37:54.355Z,1.10
2022-08-08T22:40:34.093Z,1.20
2022-08-08T22:43:12.633Z,0.88
2022-08-08T22:45:53.127Z,1.08
2022-08-08T22:48:31.293Z,1.10
2022-08-08T22:51:09.466Z,1.00
2022-08-08T22:54:30.809Z,1.30
2022-08-08T22:56:47.386Z,1.00
2022-08-08T22:59:36.288Z,1.10
2022-08-08T23:02:29.042Z,1.02
2022-08-08T23:05:13.682Z,0.95
2022-08-08T23:07:57.524Z,1.00
2022-08-08T23:10:36.423Z,1.10
2022-08-08T23:13:14.546Z,1.13
2022-08-08T23:16:42.198Z,1.30
2022-08-08T23:18:52.065Z,1.20
2022-08-08T23:21:30.264Z,0.90
2022-08-08T23:24:09.204Z,1.35
2022-08-08T23:26:53.493Z,1.10
2022-08-08T23:29:34.675Z,1.15
2022-08-08T23:32:13.163Z,1.20
2022-08-08T23:34:58.882Z,1.17
2022-08-08T23:38:03.052Z,1.15
2022-08-08T23:40:36.219Z,1.10
2022-08-08T23:43:14.340Z,1.40
2022-08-08T23:49:03.602Z,1.23
2022-08-08T23:49:04.615Z,1.02
2022-08-08T23:52:04.610Z,1.58
2022-08-08T23:54:53.183Z,1.30
2022-08-08T23:57:39.177Z,1.15
